Eagleville, Massachusetts
Current Conditions -  °F | °C
As of 9:35 PM on Friday 28 Nov 2014 (Local Time) from KEEN Reporting Station
Clear Clear  
Wind Chill: 21°   Ceiling: Unl
Heat Index: 21°   Visibility: 10mi
Dew Point: 19°   Wind: 3mph
Humidity: 93%   Direction: 10°N
Pressure: 30.16"   Gusts: NA
Location:  42.614°N, 72.3011°W
Report Text: KEEN 290235Z AUTO 01003KT 10SM CLR M06/M07 A3016 RMK AO1
Loading
Personal Weather Stations






























Interactive Weather Map New forecast layout! Learn more

10-Day Weather Forecast

Advertisements
Track Severe Weather on mobile